createdAt,value
2023-03-02T00:01:24.675Z,71.36
2023-03-02T00:03:52.382Z,71.71
2023-03-02T00:06:20.277Z,71.97
2023-03-02T00:08:48.214Z,71.95
2023-03-02T00:11:16.425Z,72.04
2023-03-02T00:13:45.415Z,71.82
2023-03-02T00:16:12.994Z,72.15
2023-03-02T00:18:40.593Z,71.97
2023-03-02T00:21:10.456Z,71.77
2023-03-02T00:23:38.473Z,72.09
2023-03-02T00:26:06.388Z,72.09
2023-03-02T00:28:34.239Z,72.16
2023-03-02T00:31:05.168Z,72.15
2023-03-02T00:33:32.938Z,72.24
2023-03-02T00:36:00.516Z,72.49
2023-03-02T00:38:28.630Z,72.91
2023-03-02T00:40:56.652Z,72.56
2023-03-02T00:43:29.435Z,72.46
2023-03-02T00:45:56.968Z,72.18
2023-03-02T00:48:25.928Z,72.38
2023-03-02T00:50:53.492Z,72.32
2023-03-02T00:53:21.072Z,72.73
2023-03-02T00:55:54.391Z,72.28
2023-03-02T00:58:22.194Z,72.37
2023-03-02T01:00:50.080Z,72.67
2023-03-02T01:03:17.692Z,72.49
2023-03-02T01:05:46.644Z,72.41
2023-03-02T01:08:14.360Z,72.49
2023-03-02T01:10:42.173Z,72.45
2023-03-02T01:13:09.715Z,72.55
2023-03-02T01:15:37.261Z,72.77
2023-03-02T01:18:05.119Z,72.44
2023-03-02T01:20:32.693Z,72.72
2023-03-02T01:23:01.601Z,73.17
2023-03-02T01:25:29.274Z,72.66
2023-03-02T01:27:57.008Z,73.29
2023-03-02T01:30:24.582Z,73.64
2023-03-02T01:32:52.155Z,73.58
2023-03-02T01:35:19.922Z,73.45
2023-03-02T01:37:47.551Z,73.57
2023-03-02T01:40:18.745Z,73.52
2023-03-02T01:42:55.102Z,73.26
2023-03-02T01:45:47.432Z,73.42
2023-03-02T01:48:17.279Z,73.54
2023-03-02T01:50:45.122Z,73.45
2023-03-02T01:53:13.073Z,73.73
2023-03-02T01:55:44.145Z,73.69
2023-03-02T01:58:13.416Z,73.56
2023-03-02T02:00:41.284Z,73.66
2023-03-02T02:03:12.083Z,73.58
2023-03-02T02:05:41.403Z,73.62
2023-03-02T02:08:09.469Z,73.52
2023-03-02T02:10:37.289Z,73.50
2023-03-02T02:13:07.196Z,73.80
2023-03-02T02:15:34.827Z,73.62
2023-03-02T02:18:02.425Z,73.49
2023-03-02T02:20:35.048Z,73.96
2023-03-02T02:23:11.303Z,73.90
2023-03-02T02:25:46.438Z,74.28
2023-03-02T02:28:19.261Z,73.95
2023-03-02T02:30:47.454Z,74.00
2023-03-02T02:33:16.721Z,73.77
2023-03-02T02:35:47.067Z,73.59
2023-03-02T02:38:17.289Z,73.77
2023-03-02T02:40:47.511Z,74.22
2023-03-02T02:43:18.371Z,74.02
2023-03-02T02:45:46.587Z,74.17
2023-03-02T02:48:17.334Z,74.75
2023-03-02T02:50:45.643Z,74.43
2023-03-02T02:53:15.278Z,74.13
2023-03-02T02:55:43.286Z,74.15
2023-03-02T02:58:26.186Z,74.00
2023-03-02T03:00:54.703Z,74.02
2023-03-02T03:03:30.750Z,74.18
2023-03-02T03:05:59.686Z,74.05
2023-03-02T03:08:55.757Z,74.02
2023-03-02T03:11:26.393Z,74.39
2023-03-02T03:13:59.897Z,74.11
2023-03-02T03:16:30.030Z,74.00
2023-03-02T03:18:58.734Z,74.25
2023-03-02T03:21:26.254Z,74.45
2023-03-02T03:23:53.810Z,74.27
2023-03-02T03:26:21.581Z,74.01
2023-03-02T03:28:49.129Z,74.48
2023-03-02T03:31:18.213Z,74.28
2023-03-02T03:33:45.851Z,74.76
2023-03-02T03:36:13.547Z,74.83
2023-03-02T03:38:41.159Z,75.02
2023-03-02T03:41:08.691Z,74.98
2023-03-02T03:43:36.301Z,74.86
2023-03-02T03:46:03.968Z,74.92
2023-03-02T03:48:32.902Z,75.33
2023-03-02T03:51:00.566Z,74.96
2023-03-02T03:53:28.476Z,75.27
2023-03-02T03:55:58.247Z,75.72
2023-03-02T03:58:26.103Z,75.61
2023-03-02T04:00:54.032Z,75.71
2023-03-02T04:03:22.027Z,75.73
2023-03-02T04:05:50.922Z,75.59
2023-03-02T04:08:18.583Z,75.98
2023-03-02T04:10:46.520Z,76.40
2023-03-02T04:13:14.177Z,76.39
2023-03-02T04:15:43.122Z,76.72
2023-03-02T04:18:11.508Z,76.56
2023-03-02T04:20:39.128Z,76.93
2023-03-02T04:23:08.067Z,76.94
2023-03-02T04:25:35.590Z,76.75
2023-03-02T04:28:03.240Z,76.79
2023-03-02T04:30:33.040Z,77.33
2023-03-02T04:33:00.648Z,77.59
2023-03-02T04:35:28.277Z,77.86
2023-03-02T04:37:55.975Z,77.41
2023-03-02T04:40:25.097Z,78.00
2023-03-02T04:42:52.740Z,78.36
2023-03-02T04:45:20.480Z,78.14
2023-03-02T04:47:48.069Z,78.15
2023-03-02T04:50:16.320Z,78.12
2023-03-02T04:52:43.835Z,78.45
2023-03-02T04:55:17.307Z,78.75
2023-03-02T04:57:46.185Z,78.69
2023-03-02T05:00:14.493Z,79.00
2023-03-02T05:02:42.340Z,79.16
2023-03-02T05:05:14.700Z,78.25
2023-03-02T05:07:42.262Z,78.92
2023-03-02T05:10:10.966Z,78.90
2023-03-02T05:12:54.501Z,78.75
2023-03-02T05:15:24.659Z,79.12
2023-03-02T05:17:52.331Z,78.95
2023-03-02T05:20:20.347Z,79.01
2023-03-02T05:22:48.214Z,79.37
2023-03-02T05:25:15.821Z,79.30
2023-03-02T05:27:43.354Z,79.70
2023-03-02T05:30:12.396Z,79.95
2023-03-02T05:32:41.482Z,79.73
2023-03-02T05:35:09.887Z,80.11
2023-03-02T05:37:39.736Z,79.81
2023-03-02T05:40:09.478Z,80.30
2023-03-02T05:42:37.052Z,80.40
2023-03-02T05:45:05.329Z,80.50
2023-03-02T05:47:32.901Z,80.31
2023-03-02T05:50:02.177Z,80.51
2023-03-02T05:52:29.768Z,80.25
2023-03-02T05:54:59.398Z,80.54
2023-03-02T05:57:27.627Z,80.42
2023-03-02T05:59:55.156Z,80.46
2023-03-02T06:02:22.791Z,79.96
2023-03-02T06:04:50.421Z,80.10
2023-03-02T06:07:19.390Z,80.19
2023-03-02T06:09:46.984Z,79.82
2023-03-02T06:12:14.554Z,79.85
2023-03-02T06:14:42.301Z,79.86
2023-03-02T06:17:09.842Z,79.72
2023-03-02T06:19:37.426Z,80.04
2023-03-02T06:22:05.045Z,79.56
2023-03-02T06:24:34.125Z,79.85
2023-03-02T06:27:01.719Z,79.21
2023-03-02T06:29:29.376Z,78.67
2023-03-02T06:31:57.028Z,78.60
2023-03-02T06:34:24.636Z,79.10
2023-03-02T06:36:52.202Z,78.97
2023-03-02T06:39:19.758Z,79.03
2023-03-02T06:41:49.427Z,78.80
2023-03-02T06:44:18.764Z,78.54
2023-03-02T06:46:46.608Z,78.86
2023-03-02T06:49:14.323Z,78.32
2023-03-02T06:51:41.882Z,78.72
2023-03-02T06:54:09.466Z,78.70
2023-03-02T06:56:37.828Z,78.54
2023-03-02T06:59:07.473Z,78.46
2023-03-02T07:01:36.279Z,78.45
2023-03-02T07:04:04.317Z,78.20
2023-03-02T07:06:31.904Z,77.94
2023-03-02T07:08:59.470Z,77.88
2023-03-02T07:11:27.001Z,77.42
2023-03-02T07:13:54.639Z,77.23
2023-03-02T07:16:23.636Z,76.85
2023-03-02T07:18:51.215Z,76.16
2023-03-02T07:21:18.766Z,75.94
2023-03-02T07:23:46.362Z,76.33
2023-03-02T07:26:13.908Z,76.23
2023-03-02T07:28:43.406Z,75.42
2023-03-02T07:31:11.589Z,75.27
2023-03-02T07:33:40.956Z,75.05
2023-03-02T07:36:09.546Z,74.71
2023-03-02T07:38:38.484Z,74.43
2023-03-02T07:41:08.136Z,74.08
2023-03-02T07:43:36.595Z,73.68
2023-03-02T07:46:04.965Z,73.45
2023-03-02T07:48:32.654Z,73.80
2023-03-02T07:51:02.917Z,73.47
2023-03-02T07:53:31.947Z,73.39
2023-03-02T07:56:01.269Z,73.05
2023-03-02T07:58:29.069Z,73.10
2023-03-02T08:00:56.626Z,73.18
2023-03-02T08:03:24.238Z,72.59
2023-03-02T08:05:51.810Z,72.55
2023-03-02T08:08:20.738Z,72.62
2023-03-02T08:10:48.350Z,72.04
2023-03-02T08:13:15.999Z,71.96
2023-03-02T08:15:43.633Z,72.08
2023-03-02T08:18:11.320Z,71.93
2023-03-02T08:20:39.316Z,70.95
2023-03-02T08:23:06.954Z,70.91
2023-03-02T08:25:35.923Z,71.09
2023-03-02T08:28:03.456Z,70.31
2023-03-02T08:30:31.134Z,70.04
2023-03-02T08:32:58.996Z,69.90
2023-03-02T08:35:27.681Z,69.91
2023-03-02T08:37:55.325Z,69.77
2023-03-02T08:40:23.100Z,68.97
2023-03-02T08:42:56.910Z,69.23
2023-03-02T08:45:25.253Z,68.33
2023-03-02T08:47:54.238Z,69.24
2023-03-02T08:50:21.834Z,68.67
2023-03-02T08:52:49.508Z,68.68
2023-03-02T08:55:18.460Z,68.22
2023-03-02T08:57:46.460Z,68.21
2023-03-02T09:00:16.941Z,67.90
2023-03-02T09:02:44.631Z,67.44
2023-03-02T09:05:12.262Z,67.50
2023-03-02T09:07:39.892Z,67.10
2023-03-02T09:10:07.877Z,67.23
2023-03-02T09:12:35.574Z,67.09
2023-03-02T09:15:03.198Z,67.33
2023-03-02T09:17:32.247Z,66.66
2023-03-02T09:20:00.420Z,65.82
2023-03-02T09:22:28.668Z,66.22
2023-03-02T09:24:56.284Z,66.27
2023-03-02T09:27:23.894Z,65.88
2023-03-02T09:29:51.476Z,65.38
2023-03-02T09:32:19.167Z,65.56
2023-03-02T09:34:48.351Z,64.84
2023-03-02T09:37:16.042Z,64.76
2023-03-02T09:39:43.740Z,65.33
2023-03-02T09:42:19.988Z,64.86
2023-03-02T09:45:03.977Z,65.27
2023-03-02T09:47:37.608Z,65.31
2023-03-02T09:50:18.136Z,64.57
2023-03-02T09:52:52.362Z,64.86
2023-03-02T09:55:23.624Z,65.16
2023-03-02T09:57:51.385Z,64.75
2023-03-02T10:00:25.833Z,64.06
2023-03-02T10:02:58.754Z,63.43
2023-03-02T10:05:36.814Z,63.09
2023-03-02T10:08:04.461Z,63.61
2023-03-02T10:10:37.744Z,63.76
2023-03-02T10:13:19.899Z,63.07
2023-03-02T10:15:56.574Z,62.89
2023-03-02T10:18:26.797Z,63.98
2023-03-02T10:20:59.735Z,63.02
2023-03-02T10:23:35.065Z,63.15
2023-03-02T10:26:10.986Z,63.38
2023-03-02T10:28:43.243Z,62.54
2023-03-02T10:31:13.281Z,62.89
2023-03-02T10:33:41.916Z,62.64
2023-03-02T10:36:20.997Z,62.49
2023-03-02T10:38:48.694Z,62.69
2023-03-02T10:41:19.378Z,62.30
2023-03-02T10:43:49.495Z,62.66
2023-03-02T10:46:17.119Z,61.89
2023-03-02T10:48:49.879Z,62.29
2023-03-02T10:51:29.661Z,62.27
2023-03-02T10:54:05.595Z,60.99
2023-03-02T10:56:33.934Z,61.34
2023-03-02T10:59:03.963Z,61.16
2023-03-02T11:01:32.551Z,60.48
2023-03-02T11:04:01.841Z,60.96
2023-03-02T11:06:31.461Z,60.90
2023-03-02T11:09:00.836Z,61.10
2023-03-02T11:11:28.490Z,60.91
2023-03-02T11:13:57.263Z,60.08
2023-03-02T11:16:28.446Z,59.86
2023-03-02T11:18:59.694Z,60.02
2023-03-02T11:21:35.543Z,60.36
2023-03-02T11:24:10.408Z,59.44
2023-03-02T11:26:40.027Z,59.70
2023-03-02T11:29:14.690Z,58.90
2023-03-02T11:31:44.953Z,58.43
2023-03-02T11:34:22.453Z,58.82
2023-03-02T11:36:59.048Z,59.32
2023-03-02T11:39:32.691Z,58.54
2023-03-02T11:42:00.416Z,58.86
2023-03-02T11:44:29.669Z,58.74
2023-03-02T11:47:01.123Z,59.09
2023-03-02T11:49:37.972Z,58.66
2023-03-02T11:52:08.202Z,58.42
2023-03-02T11:54:42.231Z,57.80
2023-03-02T11:57:20.440Z,58.74
2023-03-02T11:59:48.500Z,58.43
2023-03-02T12:02:16.496Z,58.03
2023-03-02T12:04:44.459Z,58.55
2023-03-02T12:07:23.797Z,57.44
2023-03-02T12:09:59.874Z,57.56
2023-03-02T12:12:48.397Z,57.59
2023-03-02T12:15:29.275Z,57.65
2023-03-02T12:17:56.905Z,57.70
2023-03-02T12:20:27.444Z,57.37
2023-03-02T12:23:07.904Z,57.29
2023-03-02T12:25:43.780Z,57.91
2023-03-02T12:28:28.148Z,57.46
2023-03-02T12:31:04.591Z,57.42
2023-03-02T12:33:32.161Z,57.75
2023-03-02T12:36:13.109Z,57.00
2023-03-02T12:38:43.994Z,56.62
2023-03-02T12:41:35.646Z,56.44
2023-03-02T12:44:13.807Z,56.79
2023-03-02T12:46:46.283Z,56.84
2023-03-02T12:49:33.435Z,56.42
2023-03-02T12:52:02.608Z,56.91
2023-03-02T12:54:37.818Z,57.00
2023-03-02T12:57:09.084Z,56.41
2023-03-02T12:59:39.712Z,56.31
2023-03-02T13:02:16.770Z,56.34
2023-03-02T13:04:46.322Z,56.37
2023-03-02T13:07:19.889Z,56.93
2023-03-02T13:09:56.599Z,56.74
2023-03-02T13:12:28.009Z,56.41
2023-03-02T13:15:01.082Z,56.18
2023-03-02T13:17:31.157Z,56.42
2023-03-02T13:20:04.145Z,56.21
2023-03-02T13:22:32.719Z,56.32
2023-03-02T13:25:05.153Z,56.71
2023-03-02T13:27:34.164Z,56.60
2023-03-02T13:30:19.075Z,56.68
2023-03-02T13:32:47.357Z,56.29
2023-03-02T13:35:21.001Z,56.25
2023-03-02T13:37:56.158Z,55.46
2023-03-02T13:40:40.634Z,56.02
2023-03-02T13:43:35.671Z,55.42
2023-03-02T13:46:05.233Z,55.85
2023-03-02T13:48:34.345Z,56.06
2023-03-02T13:51:05.034Z,55.25
2023-03-02T13:53:38.201Z,55.44
2023-03-02T13:56:08.401Z,55.09
2023-03-02T13:58:39.657Z,55.66
2023-03-02T14:01:08.984Z,55.85
2023-03-02T14:03:37.609Z,56.04
2023-03-02T14:06:07.137Z,56.56
2023-03-02T14:08:35.363Z,55.97
2023-03-02T14:11:04.771Z,55.46
2023-03-02T14:13:38.169Z,55.46
2023-03-02T14:16:07.572Z,55.41
2023-03-02T14:18:39.973Z,55.85
2023-03-02T14:21:08.056Z,55.79
2023-03-02T14:23:36.302Z,55.82
2023-03-02T14:26:11.308Z,55.92
2023-03-02T14:28:40.639Z,55.60
2023-03-02T14:31:10.150Z,55.53
2023-03-02T14:33:38.675Z,55.73
2023-03-02T14:36:06.917Z,55.66
2023-03-02T14:38:35.392Z,56.03
2023-03-02T14:41:03.104Z,55.70
2023-03-02T14:43:30.819Z,55.73
2023-03-02T14:45:59.760Z,55.89
2023-03-02T14:48:27.342Z,55.84
2023-03-02T14:50:54.888Z,55.76
2023-03-02T14:53:27.855Z,55.67
2023-03-02T14:55:55.416Z,56.03
2023-03-02T14:58:29.188Z,55.96
2023-03-02T15:00:56.755Z,56.28
2023-03-02T15:03:26.724Z,56.31
2023-03-02T15:06:01.391Z,55.65
2023-03-02T15:08:29.629Z,55.94
2023-03-02T15:10:57.316Z,56.04
2023-03-02T15:13:24.904Z,55.92
2023-03-02T15:15:52.741Z,56.14
2023-03-02T15:18:20.471Z,55.84
2023-03-02T15:20:49.413Z,56.14
2023-03-02T15:23:17.007Z,55.44
2023-03-02T15:25:44.572Z,55.46
2023-03-02T15:28:12.120Z,55.46
2023-03-02T15:30:41.559Z,55.72
2023-03-02T15:33:09.163Z,55.57
2023-03-02T15:35:39.505Z,55.16
2023-03-02T15:38:08.473Z,54.92
2023-03-02T15:40:36.691Z,55.60
2023-03-02T15:43:04.602Z,55.33
2023-03-02T15:45:32.125Z,55.46
2023-03-02T15:47:59.679Z,55.04
2023-03-02T15:50:27.277Z,55.37
2023-03-02T15:52:57.309Z,55.53
2023-03-02T15:55:27.038Z,55.61
2023-03-02T15:57:57.927Z,55.62
2023-03-02T16:00:25.986Z,55.70
2023-03-02T16:02:54.639Z,55.42
2023-03-02T16:05:22.353Z,55.85
2023-03-02T16:07:49.932Z,55.71
2023-03-02T16:10:19.580Z,55.89
2023-03-02T16:12:48.502Z,56.29
2023-03-02T16:15:16.121Z,56.62
2023-03-02T16:17:43.903Z,56.96
2023-03-02T16:20:12.875Z,56.68
2023-03-02T16:22:40.546Z,56.55
2023-03-02T16:25:08.806Z,56.82
2023-03-02T16:27:36.404Z,56.86
2023-03-02T16:30:06.132Z,56.92
2023-03-02T16:32:34.138Z,57.37
2023-03-02T16:35:01.684Z,57.52
2023-03-02T16:37:29.395Z,57.80
2023-03-02T16:39:57.058Z,57.69
2023-03-02T16:42:24.613Z,58.13
2023-03-02T16:44:52.175Z,57.74
2023-03-02T16:47:21.059Z,58.00
2023-03-02T16:49:48.626Z,57.69
2023-03-02T16:52:18.550Z,58.07
2023-03-02T16:54:46.164Z,57.40
2023-03-02T16:57:13.694Z,56.60
2023-03-02T16:59:41.347Z,56.42
2023-03-02T17:02:10.110Z,56.31
2023-03-02T17:04:39.103Z,55.59
2023-03-02T17:07:06.694Z,56.01
2023-03-02T17:09:35.963Z,56.29
2023-03-02T17:12:03.891Z,56.00
2023-03-02T17:14:31.469Z,55.19
2023-03-02T17:16:59.021Z,55.22
2023-03-02T17:19:29.365Z,55.34
2023-03-02T17:21:59.206Z,55.38
2023-03-02T17:24:26.977Z,55.44
2023-03-02T17:26:54.559Z,55.34
2023-03-02T17:29:22.649Z,55.11
2023-03-02T17:31:50.313Z,55.19
2023-03-02T17:34:17.939Z,55.34
2023-03-02T17:36:45.529Z,55.76
2023-03-02T17:39:14.426Z,55.95
2023-03-02T17:41:42.017Z,55.75
2023-03-02T17:44:09.561Z,56.23
2023-03-02T17:46:37.187Z,56.17
2023-03-02T17:49:04.799Z,56.60
2023-03-02T17:51:32.376Z,56.35
2023-03-02T17:53:59.999Z,55.48
2023-03-02T17:56:29.975Z,56.07
2023-03-02T17:58:59.326Z,54.84
2023-03-02T18:01:27.419Z,54.80
2023-03-02T18:03:55.214Z,54.11
2023-03-02T18:06:22.838Z,52.64
2023-03-02T18:08:51.810Z,52.62
2023-03-02T18:11:21.957Z,52.51
2023-03-02T18:13:51.041Z,52.53
2023-03-02T18:16:18.603Z,52.45
2023-03-02T18:18:46.186Z,52.41
2023-03-02T18:21:13.851Z,52.06
2023-03-02T18:23:41.955Z,52.23
2023-03-02T18:26:09.609Z,52.28
2023-03-02T18:28:37.176Z,52.04
2023-03-02T18:31:06.736Z,51.95
2023-03-02T18:33:34.920Z,51.65
2023-03-02T18:36:05.317Z,52.07
2023-03-02T18:38:33.097Z,51.86
2023-03-02T18:41:02.998Z,52.16
2023-03-02T18:43:32.632Z,52.22
2023-03-02T18:46:00.393Z,52.47
2023-03-02T18:48:29.725Z,52.38
2023-03-02T18:50:57.488Z,52.70
2023-03-02T18:53:25.421Z,53.04
2023-03-02T18:55:55.531Z,53.04
2023-03-02T18:58:25.092Z,53.37
2023-03-02T19:00:54.406Z,53.36
2023-03-02T19:03:22.324Z,53.93
2023-03-02T19:05:53.070Z,53.80
2023-03-02T19:08:24.263Z,53.69
2023-03-02T19:10:52.745Z,53.56
2023-03-02T19:13:20.896Z,53.76
2023-03-02T19:15:48.919Z,53.53
2023-03-02T19:18:17.477Z,53.48
2023-03-02T19:20:46.324Z,53.43
2023-03-02T19:23:15.826Z,53.80
2023-03-02T19:25:44.117Z,53.76
2023-03-02T19:28:12.089Z,53.81
2023-03-02T19:30:40.045Z,53.18
2023-03-02T19:33:09.261Z,53.17
2023-03-02T19:35:38.371Z,52.86
2023-03-02T19:38:06.146Z,52.87
2023-03-02T19:40:35.560Z,52.63
2023-03-02T19:43:03.281Z,52.87
2023-03-02T19:45:35.046Z,52.14
2023-03-02T19:48:03.671Z,52.33
2023-03-02T19:50:31.501Z,52.39
2023-03-02T19:52:59.963Z,52.66
2023-03-02T19:55:28.222Z,52.19
2023-03-02T19:58:00.070Z,52.33
2023-03-02T20:00:29.074Z,52.30
2023-03-02T20:02:57.532Z,52.50
2023-03-02T20:05:25.965Z,52.40
2023-03-02T20:07:53.520Z,51.87
2023-03-02T20:10:28.485Z,52.05
2023-03-02T20:12:59.244Z,51.80
2023-03-02T20:15:27.450Z,51.91
2023-03-02T20:17:55.345Z,51.81
2023-03-02T20:20:24.703Z,52.17
2023-03-02T20:22:52.937Z,52.08
2023-03-02T20:25:23.751Z,51.97
2023-03-02T20:27:51.962Z,52.28
2023-03-02T20:30:27.856Z,52.25
2023-03-02T20:32:56.782Z,52.49
2023-03-02T20:35:25.941Z,52.31
2023-03-02T20:37:55.635Z,52.48
2023-03-02T20:40:23.690Z,52.33
2023-03-02T20:42:51.303Z,52.27
2023-03-02T20:45:18.989Z,52.42
2023-03-02T20:47:48.938Z,52.28
2023-03-02T20:50:19.748Z,51.55
2023-03-02T20:52:47.319Z,51.86
2023-03-02T20:55:15.175Z,51.48
2023-03-02T20:57:42.867Z,51.45
2023-03-02T21:00:16.285Z,51.38
2023-03-02T21:02:47.358Z,51.48
2023-03-02T21:05:17.982Z,50.93
2023-03-02T21:07:46.246Z,51.30
2023-03-02T21:10:17.007Z,51.55
2023-03-02T21:12:45.593Z,51.29
2023-03-02T21:15:14.164Z,51.70
2023-03-02T21:17:41.764Z,51.96
2023-03-02T21:20:11.345Z,51.35
2023-03-02T21:22:40.240Z,51.82
2023-03-02T21:25:09.209Z,52.05
2023-03-02T21:27:37.124Z,52.28
2023-03-02T21:30:06.091Z,52.18
2023-03-02T21:32:33.958Z,51.70
2023-03-02T21:35:02.683Z,51.80
2023-03-02T21:37:30.358Z,51.63
2023-03-02T21:40:00.260Z,51.52
2023-03-02T21:42:27.879Z,51.64
2023-03-02T21:44:55.535Z,51.49
2023-03-02T21:47:23.137Z,51.74
2023-03-02T21:49:50.755Z,51.75
2023-03-02T21:52:18.427Z,51.90
2023-03-02T21:54:46.019Z,51.98
2023-03-02T21:57:14.954Z,52.33
2023-03-02T21:59:42.572Z,52.15
2023-03-02T22:02:10.709Z,51.50
2023-03-02T22:04:38.287Z,51.30
2023-03-02T22:07:05.974Z,51.76
2023-03-02T22:09:33.563Z,52.06
2023-03-02T22:12:01.442Z,51.83
2023-03-02T22:14:30.444Z,51.81
2023-03-02T22:16:59.202Z,52.20
2023-03-02T22:19:27.919Z,52.05
2023-03-02T22:21:56.683Z,51.92
2023-03-02T22:24:26.134Z,51.98
2023-03-02T22:26:59.124Z,52.27
2023-03-02T22:29:28.013Z,52.49
2023-03-02T22:31:58.522Z,52.57
2023-03-02T22:34:28.158Z,53.16
2023-03-02T22:36:59.760Z,52.92
2023-03-02T22:39:30.170Z,53.13
2023-03-02T22:42:06.122Z,53.08
2023-03-02T22:44:34.176Z,53.67
2023-03-02T22:47:03.372Z,53.29
2023-03-02T22:49:30.919Z,53.54
2023-03-02T22:52:02.471Z,54.51
2023-03-02T22:54:33.118Z,54.81
2023-03-02T22:57:02.803Z,55.81
2023-03-02T22:59:37.243Z,54.11
2023-03-02T23:02:14.930Z,54.01
2023-03-02T23:04:49.466Z,54.24
2023-03-02T23:07:19.108Z,54.33
2023-03-02T23:09:47.041Z,54.68
2023-03-02T23:12:17.398Z,55.06
2023-03-02T23:14:49.022Z,54.94
2023-03-02T23:17:21.017Z,55.43
2023-03-02T23:19:48.769Z,55.36
2023-03-02T23:22:16.802Z,54.75
2023-03-02T23:24:44.530Z,54.86
2023-03-02T23:27:12.499Z,54.84
2023-03-02T23:29:40.319Z,55.12
2023-03-02T23:32:08.196Z,55.51
2023-03-02T23:34:37.204Z,55.59
2023-03-02T23:37:04.894Z,55.55
2023-03-02T23:39:32.463Z,55.55
2023-03-02T23:42:00.164Z,55.91
2023-03-02T23:44:27.813Z,55.92
2023-03-02T23:46:55.377Z,55.97
2023-03-02T23:49:22.924Z,56.16
2023-03-02T23:51:51.922Z,56.38
2023-03-02T23:54:21.300Z,57.42
2023-03-02T23:56:48.865Z,57.97
2023-03-02T23:59:16.396Z,58.00
